Time;durP1;ratioP1;P1;durP2;ratioP2;P2;SDS_P1;SDS_P2;PMS_P1;PMS_P2;Temp;Humidity;BMP_temperature;BMP_pressure;BME280_temperature;BME280_humidity;BME280_pressure;Samples;Min_cycle;Max_cycle;Signal;HPM_P1;HPM_P2
2022/03/08 00:01:10;;;;;;;5.10;4.00;;;;;;;1.55;64.03;102417.50;5054232;28;20144;-35
2022/03/08 00:03:35;;;;;;;5.70;4.13;;;;;;;1.52;63.31;102413.28;5053992;28;20120;-34
2022/03/08 00:06:01;;;;;;;6.03;4.20;;;;;;;1.33;63.14;102401.69;5054168;28;20079;-35
2022/03/08 00:08:27;;;;;;;5.10;4.03;;;;;;;1.43;63.80;102414.09;5053344;28;20036;-35
2022/03/08 00:10:52;;;;;;;8.52;3.88;;;;;;;1.36;63.43;102406.72;5053157;28;20033;-35
2022/03/08 00:13:17;;;;;;;5.53;4.20;;;;;;;1.40;63.33;102414.34;5053939;28;20143;-35
2022/03/08 00:15:43;;;;;;;6.63;4.03;;;;;;;1.35;63.16;102415.72;5053712;28;20029;-35
2022/03/08 00:18:09;;;;;;;5.67;3.57;;;;;;;1.32;63.80;102406.19;5053190;28;20462;-35
2022/03/08 00:20:34;;;;;;;5.65;3.95;;;;;;;1.26;63.54;102399.53;5053155;28;20028;-35
2022/03/08 00:23:01;;;;;;;4.33;3.60;;;;;;;1.37;63.45;102403.97;5053159;28;20451;-35
2022/03/08 00:25:26;;;;;;;6.30;3.28;;;;;;;1.39;63.15;102407.31;5053674;28;20329;-35
2022/03/08 00:27:52;;;;;;;4.18;3.60;;;;;;;1.32;64.09;102405.31;5053002;28;20465;-34
2022/03/08 00:30:20;;;;;;;5.55;3.33;;;;;;;1.28;62.79;102396.75;5052762;28;20128;-35
2022/03/08 00:32:47;;;;;;;4.85;3.30;;;;;;;1.33;63.74;102402.53;5052742;28;20025;-35
2022/03/08 00:35:13;;;;;;;6.00;3.88;;;;;;;1.31;62.87;102401.78;5052668;28;20044;-35
2022/03/08 00:37:39;;;;;;;7.00;4.30;;;;;;;1.36;64.18;102396.06;5052737;28;20098;-35
2022/03/08 00:40:07;;;;;;;7.95;4.30;;;;;;;1.17;63.36;102381.69;5053540;28;20072;-35
2022/03/08 00:42:32;;;;;;;4.95;3.88;;;;;;;1.32;63.87;102399.97;5053367;28;20041;-35
2022/03/08 00:44:58;;;;;;;5.57;4.10;;;;;;;1.11;62.90;102368.88;5052684;28;20124;-35
2022/03/08 00:47:23;;;;;;;7.30;4.10;;;;;;;1.28;63.84;102399.41;5053020;28;20025;-35
2022/03/08 00:49:48;;;;;;;6.23;4.40;;;;;;;1.29;62.94;102401.94;5053084;28;20021;-35
2022/03/08 00:52:14;;;;;;;5.93;3.70;;;;;;;1.28;62.81;102404.75;5053033;28;20025;-35
2022/03/08 00:54:39;;;;;;;6.70;3.83;;;;;;;1.18;63.04;102387.88;5052629;28;20155;-35
2022/03/08 00:57:05;;;;;;;6.33;3.50;;;;;;;1.15;62.83;102407.59;5052750;28;20377;-35
2022/03/08 00:59:31;;;;;;;9.07;4.88;;;;;;;1.08;62.72;102393.13;5052733;28;20036;-35
2022/03/08 01:01:56;;;;;;;4.28;3.25;;;;;;;1.13;63.02;102401.56;5052713;28;20036;-35
2022/03/08 01:04:21;;;;;;;5.50;3.83;;;;;;;1.04;63.25;102383.72;5052791;28;20033;-35
2022/03/08 01:06:47;;;;;;;5.10;3.73;;;;;;;1.11;62.58;102398.19;5053259;28;20025;-35
2022/03/08 01:09:12;;;;;;;8.30;4.10;;;;;;;1.07;62.77;102398.56;5053330;28;20029;-35
2022/03/08 01:11:39;;;;;;;6.73;4.53;;;;;;;1.13;62.54;102398.91;5052792;28;20032;-35
2022/03/08 01:14:06;;;;;;;7.30;3.92;;;;;;;1.10;62.91;102391.16;5052457;28;20037;-35
2022/03/08 01:16:32;;;;;;;7.63;4.47;;;;;;;0.94;62.68;102378.31;5053218;28;20064;-35
2022/03/08 01:18:57;;;;;;;6.43;4.00;;;;;;;0.99;62.61;102393.91;5052579;28;20044;-35
2022/03/08 01:21:23;;;;;;;5.50;3.97;;;;;;;0.96;63.57;102370.19;5053082;28;20036;-35
2022/03/08 01:23:48;;;;;;;4.53;3.37;;;;;;;1.02;62.51;102382.97;5052287;28;20102;-35
2022/03/08 01:26:14;;;;;;;5.40;3.50;;;;;;;0.98;63.18;102385.09;5052515;28;20059;-35
2022/03/08 01:28:40;;;;;;;6.03;3.60;;;;;;;1.01;63.81;102379.47;5052118;28;20032;-35
2022/03/08 01:31:05;;;;;;;6.70;3.83;;;;;;;0.97;63.13;102370.06;5052682;28;20029;-35
2022/03/08 01:33:30;;;;;;;5.00;3.37;;;;;;;1.01;63.30;102376.81;5051976;28;20029;-35
2022/03/08 01:35:56;;;;;;;7.07;3.87;;;;;;;0.99;62.70;102367.28;5052238;28;20049;-35
2022/03/08 01:38:21;;;;;;;4.87;4.07;;;;;;;1.00;63.70;102364.47;5051959;28;20028;-35
2022/03/08 01:40:47;;;;;;;6.97;3.80;;;;;;;0.94;62.32;102364.16;5052540;28;20021;-35
2022/03/08 01:43:12;;;;;;;5.67;3.77;;;;;;;0.90;63.62;102352.06;5051915;28;20430;-35
2022/03/08 01:45:38;;;;;;;4.17;3.33;;;;;;;0.81;63.58;102344.88;5052763;28;20363;-35
2022/03/08 01:48:03;;;;;;;7.82;3.53;;;;;;;0.85;62.74;102355.13;5054307;28;20434;-35
2022/03/08 01:50:29;;;;;;;5.95;3.50;;;;;;;0.82;63.10;102351.88;5056544;28;20111;-35
2022/03/08 01:52:55;;;;;;;5.93;3.43;;;;;;;0.81;63.45;102351.03;5056310;28;20384;-35
2022/03/08 01:55:20;;;;;;;4.22;3.30;;;;;;;0.62;63.00;102333.09;5055946;28;20025;-35
2022/03/08 01:57:49;;;;;;;7.28;3.85;;;;;;;0.70;63.34;102340.47;5055883;28;20028;-35
2022/03/08 02:00:18;;;;;;;4.18;3.20;;;;;;;0.71;64.35;102337.66;5056079;28;20103;-35
2022/03/08 02:02:44;;;;;;;4.43;3.38;;;;;;;0.69;63.50;102334.28;5055574;28;20051;-35
2022/03/08 02:05:10;;;;;;;;;;;;;;;0.75;63.44;102343.56;5056738;28;20380;-35
2022/03/08 02:07:36;;;;;;;3.78;2.88;;;;;;;0.68;63.63;102340.59;5055766;28;19908;-35
2022/03/08 02:10:03;;;;;;;4.78;3.08;;;;;;;0.73;65.41;102335.72;5056133;28;20056;-35
2022/03/08 02:12:28;;;;;;;4.07;3.00;;;;;;;0.73;64.15;102340.19;5055682;28;20338;-35
2022/03/08 02:14:54;;;;;;;3.53;2.90;;;;;;;0.68;64.39;102324.63;5055737;28;20040;-34
2022/03/08 02:17:19;;;;;;;5.67;3.50;;;;;;;0.73;64.34;102330.41;5055345;28;20038;-35
2022/03/08 02:19:44;;;;;;;3.77;3.10;;;;;;;0.75;63.33;102328.44;5055657;28;20025;-35
2022/03/08 02:22:10;;;;;;;3.30;2.87;;;;;;;0.75;62.99;102323.13;5055574;28;20028;-35
2022/03/08 02:24:35;;;;;;;4.90;3.50;;;;;;;0.74;63.26;102326.75;5055626;28;20033;-35
2022/03/08 02:27:01;;;;;;;4.37;3.20;;;;;;;0.72;63.72;102320.69;5055256;28;20031;-35
2022/03/08 02:29:27;;;;;;;5.77;3.50;;;;;;;0.56;63.28;102306.16;5055939;28;20029;-35
2022/03/08 02:31:52;;;;;;;;;;;;;;;0.74;63.74;102320.59;5056230;28;20450;-35
2022/03/08 02:34:17;;;;;;;4.78;3.40;;;;;;;0.67;63.89;102314.91;5054944;28;19919;-35
2022/03/08 02:37:11;;;;;;;4.13;3.50;;;;;;;0.60;63.56;102313.75;5055907;28;20135;-34
2022/03/08 02:39:37;;;;;;;5.80;3.33;;;;;;;0.56;63.69;102306.16;5054962;28;20029;-35
2022/03/08 02:42:03;;;;;;;4.97;3.53;;;;;;;0.47;63.74;102290.00;5055605;28;20040;-35
2022/03/08 02:44:29;;;;;;;4.93;3.55;;;;;;;0.56;64.40;102299.03;5055190;28;20033;-35
2022/03/08 02:46:55;;;;;;;3.88;3.00;;;;;;;0.50;63.81;102292.41;5054730;28;20036;-35
2022/03/08 02:49:20;;;;;;;4.85;3.38;;;;;;;0.51;64.07;102288.75;5055328;28;20029;-35
2022/03/08 02:51:46;;;;;;;5.23;3.37;;;;;;;0.51;63.34;102283.44;5055003;28;20061;-35
2022/03/08 02:54:12;;;;;;;4.47;3.30;;;;;;;0.51;64.06;102299.41;5055648;28;20060;-35
2022/03/08 02:56:38;;;;;;;5.57;3.40;;;;;;;0.53;64.78;102296.59;5054941;28;20086;-34
2022/03/08 02:59:04;;;;;;;4.07;2.92;;;;;;;0.55;64.12;102291.19;5054708;28;20086;-35
2022/03/08 03:01:29;;;;;;;4.15;3.00;;;;;;;0.57;64.10;102286.56;5055619;28;20021;-35
2022/03/08 03:03:54;;;;;;;4.20;3.30;;;;;;;0.30;64.45;102258.66;5054740;28;20083;-35
2022/03/08 03:06:20;;;;;;;4.80;3.10;;;;;;;0.52;65.14;102274.47;5054992;28;20021;-35
2022/03/08 03:08:45;;;;;;;3.80;3.33;;;;;;;0.52;64.05;102273.63;5054300;28;20068;-35
2022/03/08 03:11:10;;;;;;;4.30;2.97;;;;;;;0.48;64.60;102261.56;5055098;28;20057;-35
2022/03/08 03:13:36;;;;;;;4.70;3.17;;;;;;;0.49;64.82;102258.78;5054264;28;20025;-35
2022/03/08 03:16:01;;;;;;;3.87;3.20;;;;;;;0.48;64.60;102262.41;5054575;28;20443;-35
2022/03/08 03:18:26;;;;;;;4.90;3.80;;;;;;;0.47;64.48;102255.38;5054782;28;20026;-35
2022/03/08 03:20:52;;;;;;;4.43;3.40;;;;;;;0.38;65.67;102239.38;5055164;28;20039;-35
2022/03/08 03:23:17;;;;;;;5.43;3.70;;;;;;;0.46;64.51;102250.22;5054595;28;20032;-35
2022/03/08 03:25:43;;;;;;;4.33;3.27;;;;;;;0.45;65.20;102246.72;5054679;28;20489;-35
2022/03/08 03:28:08;;;;;;;4.67;3.33;;;;;;;0.50;65.59;102244.50;5054352;28;20033;-35
2022/03/08 03:30:34;;;;;;;3.95;3.10;;;;;;;0.46;64.03;102244.88;5054331;28;20029;-35
2022/03/08 03:33:01;;;;;;;3.47;3.10;;;;;;;0.38;64.22;102245.53;5053889;28;20040;-35
2022/03/08 03:35:26;;;;;;;5.18;3.20;;;;;;;0.42;64.58;102256.75;5054469;28;20053;-35
2022/03/08 03:37:52;;;;;;;5.50;3.43;;;;;;;0.43;64.33;102256.63;5054198;28;20441;-35
2022/03/08 03:40:17;;;;;;;6.13;3.57;;;;;;;0.48;66.82;102251.75;5052716;28;20653;-35
2022/03/08 03:42:43;;;;;;;6.20;3.30;;;;;;;0.44;65.10;102246.81;5053831;28;20267;-35
2022/03/08 03:45:10;;;;;;;4.38;3.58;;;;;;;0.37;65.42;102257.16;5054238;28;20024;-35
2022/03/08 03:47:35;;;;;;;4.22;3.45;;;;;;;0.35;66.53;102250.28;5054345;28;20035;-34
2022/03/08 03:50:01;;;;;;;5.97;3.88;;;;;;;0.32;66.85;102240.72;5054127;28;20112;-35
2022/03/08 03:52:26;;;;;;;4.28;3.60;;;;;;;0.31;64.81;102252.34;5053542;28;20096;-35
2022/03/08 03:54:52;;;;;;;4.63;4.10;;;;;;;0.33;65.26;102258.38;5053705;28;20021;-35
2022/03/08 03:57:17;;;;;;;4.53;3.50;;;;;;;0.29;65.58;102264.09;5053459;28;20029;-35
2022/03/08 03:59:43;;;;;;;5.63;3.30;;;;;;;0.35;65.22;102258.28;5054008;28;20058;-34
2022/03/08 04:02:08;;;;;;;4.03;3.23;;;;;;;0.32;65.72;102266.50;5053561;28;20032;-35
2022/03/08 04:04:34;;;;;;;3.87;3.30;;;;;;;0.32;65.24;102262.00;5053508;28;20484;-35
2022/03/08 04:06:59;;;;;;;4.50;3.40;;;;;;;0.15;64.51;102250.16;5053459;28;20032;-35
2022/03/08 04:09:24;;;;;;;5.03;3.63;;;;;;;0.20;65.34;102263.91;5053787;28;20031;-35
2022/03/08 04:11:50;;;;;;;4.90;4.17;;;;;;;0.23;65.88;102252.16;5053431;28;20388;-35
2022/03/08 04:14:15;;;;;;;3.83;3.27;;;;;;;0.24;65.44;102253.81;5053613;28;20104;-34
2022/03/08 04:16:41;;;;;;;4.87;4.07;;;;;;;0.14;65.29;102235.13;5053100;28;20056;-35
2022/03/08 04:19:06;;;;;;;5.00;3.55;;;;;;;0.15;65.30;102234.19;5053372;28;20095;-34
2022/03/08 04:21:32;;;;;;;4.77;3.80;;;;;;;0.13;65.24;102241.44;5053264;28;20028;-34
2022/03/08 04:23:59;;;;;;;6.67;3.87;;;;;;;-0.01;65.16;102233.75;5053216;28;20036;-34
2022/03/08 04:26:24;;;;;;;4.60;3.67;;;;;;;0.05;65.94;102240.38;5053645;28;20100;-35
2022/03/08 04:28:49;;;;;;;5.93;3.83;;;;;;;0.06;66.58;102240.28;5053254;28;20459;-35
2022/03/08 04:31:15;;;;;;;4.33;3.37;;;;;;;0.09;65.88;102233.84;5053542;28;20025;-34
2022/03/08 04:33:40;;;;;;;4.60;3.00;;;;;;;0.12;66.81;102234.44;5053066;28;20082;-34
2022/03/08 04:36:05;;;;;;;4.40;3.33;;;;;;;0.16;66.63;102235.88;5053321;28;20124;-35
2022/03/08 04:38:31;;;;;;;6.57;3.87;;;;;;;0.20;66.71;102234.63;5053260;28;20028;-34
2022/03/08 04:40:56;;;;;;;4.80;3.43;;;;;;;0.17;66.06;102232.22;5053378;28;20366;-34
2022/03/08 04:43:21;;;;;;;6.00;3.50;;;;;;;0.15;65.63;102239.50;5053057;28;20029;-34
2022/03/08 04:45:47;;;;;;;4.17;3.37;;;;;;;0.12;65.52;102231.78;5053828;28;20025;-34
2022/03/08 04:48:12;;;;;;;5.70;3.53;;;;;;;0.06;65.29;102242.09;5052957;28;20022;-34
2022/03/08 04:50:38;;;;;;;4.93;3.70;;;;;;;0.04;65.98;102242.19;5052930;28;20406;-34
2022/03/08 04:53:04;;;;;;;;;;;;;;;0.10;65.52;102244.38;5053059;28;20056;-35
2022/03/08 04:55:29;;;;;;;5.30;3.30;;;;;;;0.01;65.51;102218.53;5053429;28;19991;-34
2022/03/08 04:57:55;;;;;;;4.50;3.43;;;;;;;0.12;66.46;102237.09;5053778;28;20040;-35
2022/03/08 05:00:20;;;;;;;6.03;3.80;;;;;;;0.15;66.58;102236.84;5052837;28;20036;-35
2022/03/08 05:02:46;;;;;;;3.63;3.13;;;;;;;-0.06;65.90;102206.72;5053269;28;20061;-35
2022/03/08 05:05:13;;;;;;;5.00;3.90;;;;;;;0.24;69.15;102233.41;5053028;28;20029;-34
2022/03/08 05:07:39;;;;;;;5.43;3.25;;;;;;;0.18;66.72;102233.91;5052459;28;20469;-35
2022/03/08 05:10:05;;;;;;;;;;;;;;;0.19;65.71;102234.75;5053455;28;20107;-34
2022/03/08 05:12:31;;;;;;;4.93;3.45;;;;;;;0.09;66.36;102232.00;5052585;28;19912;-35
2022/03/08 05:14:57;;;;;;;4.37;3.63;;;;;;;-0.02;66.61;102221.44;5052292;28;20025;-34
2022/03/08 05:17:23;;;;;;;4.72;3.65;;;;;;;0.09;66.30;102234.69;5052529;28;20519;-35
2022/03/08 05:19:48;;;;;;;4.80;3.58;;;;;;;0.04;65.61;102228.06;5052267;28;20036;-35
2022/03/08 05:22:14;;;;;;;6.37;3.73;;;;;;;0.06;67.10;102226.97;5053396;28;20025;-35
2022/03/08 05:24:40;;;;;;;5.07;4.50;;;;;;;-0.04;66.31;102218.06;5056305;28;20291;-35
2022/03/08 05:27:05;;;;;;;5.45;3.78;;;;;;;0.01;65.85;102220.34;5056510;28;20032;-35
2022/03/08 05:29:31;;;;;;;4.27;3.77;;;;;;;-0.02;66.42;102224.09;5057006;28;20036;-35
2022/03/08 05:31:57;;;;;;;5.05;3.90;;;;;;;0.00;65.98;102222.19;5056068;28;20033;-35
2022/03/08 05:34:22;;;;;;;3.77;3.33;;;;;;;-0.06;66.09;102204.06;5056993;28;20028;-34
2022/03/08 05:36:47;;;;;;;5.97;3.83;;;;;;;-0.08;66.67;102209.50;5056858;28;20433;-34
2022/03/08 05:39:13;;;;;;;5.67;3.63;;;;;;;-0.03;66.53;102209.97;5056374;28;20457;-34
2022/03/08 05:41:38;;;;;;;5.23;3.27;;;;;;;0.00;66.68;102224.84;5055997;28;20108;-34
2022/03/08 05:44:04;;;;;;;5.03;3.93;;;;;;;0.04;67.43;102220.06;5056197;28;20472;-35
2022/03/08 05:46:29;;;;;;;6.13;4.40;;;;;;;-0.04;66.92;102218.06;5056582;28;20029;-35
2022/03/08 05:48:54;;;;;;;6.40;4.10;;;;;;;-0.05;66.60;102213.72;5056263;28;20044;-35
2022/03/08 05:51:20;;;;;;;4.77;3.93;;;;;;;-0.04;67.22;102212.75;5056773;28;20029;-35
2022/03/08 05:53:45;;;;;;;4.97;3.70;;;;;;;-0.03;67.37;102219.75;5055759;28;20029;-35
2022/03/08 05:56:11;;;;;;;6.40;4.00;;;;;;;-0.03;67.18;102209.13;5056307;28;20362;-35
2022/03/08 05:58:37;;;;;;;5.88;4.25;;;;;;;-0.09;67.34;102209.63;5056218;28;20109;-34
2022/03/08 06:01:02;;;;;;;5.60;4.30;;;;;;;-0.15;66.73;102216.28;5056965;28;20202;-35
2022/03/08 06:03:27;;;;;;;6.23;4.50;;;;;;;-0.11;67.72;102216.88;5055602;28;20528;-36
2022/03/08 06:05:53;;;;;;;6.03;4.57;;;;;;;-0.11;67.68;102216.88;5056621;28;20074;-35
2022/03/08 06:08:18;;;;;;;5.50;4.40;;;;;;;-0.20;67.40;102196.38;5056489;28;20033;-35
2022/03/08 06:10:43;;;;;;;5.87;4.20;;;;;;;-0.15;67.37;102216.28;5056444;28;20025;-35
2022/03/08 06:13:08;;;;;;;5.90;4.47;;;;;;;-0.17;68.13;102217.41;5055599;28;20025;-35
2022/03/08 06:15:34;;;;;;;5.83;4.23;;;;;;;-0.14;68.55;102214.50;5056400;28;20037;-33
2022/03/08 06:17:59;;;;;;;6.23;4.17;;;;;;;-0.13;68.26;102218.84;5055680;28;20115;-34
2022/03/08 06:20:25;;;;;;;5.30;3.83;;;;;;;-0.21;68.33;102205.34;5056133;28;20032;-35
2022/03/08 06:22:50;;;;;;;7.13;4.50;;;;;;;-0.11;68.31;102216.88;5055793;28;20025;-35
2022/03/08 06:25:15;;;;;;;8.33;5.60;;;;;;;-0.12;67.97;102217.88;5056041;28;20500;-36
2022/03/08 06:27:41;;;;;;;5.50;4.23;;;;;;;-0.16;68.29;102225.25;5055427;28;20091;-36
2022/03/08 06:30:07;;;;;;;6.10;4.80;;;;;;;-0.21;67.37;102216.81;5056364;28;20426;-36
2022/03/08 06:32:32;;;;;;;5.80;4.00;;;;;;;-0.17;68.30;102220.06;5055428;28;20100;-35
2022/03/08 06:34:57;;;;;;;6.30;4.60;;;;;;;-0.13;67.98;102218.84;5054405;28;20117;-34
2022/03/08 06:37:23;;;;;;;5.90;3.90;;;;;;;-0.11;68.02;102219.53;5055731;28;20104;-35
2022/03/08 06:39:49;;;;;;;6.13;4.40;;;;;;;-0.16;67.38;102222.59;5055032;28;20029;-35
2022/03/08 06:42:15;;;;;;;5.78;4.75;;;;;;;-0.18;68.28;102221.88;5054932;28;20028;-35
2022/03/08 06:44:41;;;;;;;6.05;4.57;;;;;;;-0.16;68.60;102211.94;5054954;28;20067;-35
2022/03/08 06:47:08;;;;;;;5.47;4.53;;;;;;;-0.17;67.61;102206.78;5055363;28;20086;-35
2022/03/08 06:49:34;;;;;;;4.97;3.85;;;;;;;-0.06;68.14;102220.84;5054865;28;20454;-35
2022/03/08 06:51:59;;;;;;;8.48;4.82;;;;;;;0.05;67.64;102217.31;5054724;28;20111;-35
2022/03/08 06:54:25;;;;;;;5.35;4.15;;;;;;;0.13;67.82;102211.34;5055308;28;20025;-35
2022/03/08 06:56:50;;;;;;;5.33;3.87;;;;;;;0.09;67.27;102201.91;5054886;28;20067;-35
2022/03/08 06:59:15;;;;;;;6.33;4.67;;;;;;;0.24;66.74;102222.78;5055025;28;20032;-36
2022/03/08 07:01:41;;;;;;;6.10;4.60;;;;;;;0.33;66.33;102223.78;5054881;28;20035;-36
2022/03/08 07:04:06;;;;;;;4.73;4.00;;;;;;;0.40;67.04;102224.13;5055637;28;20035;-36
2022/03/08 07:06:32;;;;;;;6.00;4.23;;;;;;;0.48;65.75;102222.47;5055503;28;20040;-36
2022/03/08 07:08:58;;;;;;;6.97;4.20;;;;;;;0.57;66.18;102223.50;5054502;28;20447;-36
2022/03/08 07:11:23;;;;;;;;;;;;;;;0.70;65.47;102220.63;5055168;28;20041;-36
2022/03/08 07:13:49;;;;;;;5.78;3.92;;;;;;;0.79;65.89;102219.84;5055121;28;19958;-36
2022/03/08 07:16:14;;;;;;;6.90;4.23;;;;;;;0.74;64.55;102211.41;5055366;28;20078;-36
2022/03/08 07:18:39;;;;;;;5.70;4.93;;;;;;;0.87;64.09;102219.16;5054243;28;20051;-36
2022/03/08 07:21:05;;;;;;;7.00;4.77;;;;;;;0.95;64.76;102227.34;5054509;28;20029;-36
2022/03/08 07:23:30;;;;;;;6.53;4.63;;;;;;;0.97;64.27;102225.38;5054852;28;20033;-35
2022/03/08 07:25:56;;;;;;;6.63;4.28;;;;;;;1.09;64.48;102232.28;5055218;28;20024;-35
2022/03/08 07:28:21;;;;;;;7.67;4.50;;;;;;;1.07;64.58;102215.59;5055089;28;20064;-35
2022/03/08 07:30:47;;;;;;;8.63;4.37;;;;;;;1.18;63.56;102234.16;5054853;28;20377;-35
2022/03/08 07:33:12;;;;;;;7.93;4.30;;;;;;;1.16;62.14;102214.78;5053891;28;20021;-35
2022/03/08 07:35:38;;;;;;;5.10;4.30;;;;;;;1.24;63.02;102214.94;5054141;28;20486;-35
2022/03/08 07:38:03;;;;;;;7.37;4.70;;;;;;;1.35;62.70;102221.97;5054189;28;20025;-35
2022/03/08 07:40:28;;;;;;;8.97;4.70;;;;;;;1.48;62.80;102221.75;5054242;28;20100;-35
2022/03/08 07:42:54;;;;;;;6.13;3.93;;;;;;;1.50;62.13;102212.59;5053757;28;20033;-35
2022/03/08 07:45:19;;;;;;;6.23;4.50;;;;;;;1.49;61.31;102208.25;5054240;28;20441;-35
2022/03/08 07:47:45;;;;;;;4.30;3.60;;;;;;;1.72;62.97;102216.84;5053736;28;20481;-35
2022/03/08 07:50:10;;;;;;;7.03;4.53;;;;;;;1.77;61.11;102211.09;5054491;28;20110;-35
2022/03/08 07:52:35;;;;;;;10.55;4.53;;;;;;;1.69;60.52;102189.63;5053892;28;20081;-35
2022/03/08 07:55:01;;;;;;;7.03;4.40;;;;;;;1.86;61.58;102206.75;5054274;28;20051;-35
2022/03/08 07:57:26;;;;;;;5.05;3.88;;;;;;;1.92;60.67;102207.03;5053606;28;20056;-35
2022/03/08 07:59:52;;;;;;;4.43;3.70;;;;;;;1.97;60.79;102215.44;5053512;28;20035;-35
2022/03/08 08:02:17;;;;;;;4.93;3.90;;;;;;;2.02;59.98;102223.03;5053982;28;20075;-35
2022/03/08 08:04:42;;;;;;;5.40;4.33;;;;;;;2.16;60.35;102221.75;5053795;28;20039;-35
2022/03/08 08:07:08;;;;;;;5.17;4.30;;;;;;;2.17;60.04;102208.25;5053655;28;20457;-35
2022/03/08 08:09:34;;;;;;;4.27;3.87;;;;;;;2.27;60.42;102219.75;5053545;28;20029;-35
2022/03/08 08:12:00;;;;;;;4.88;4.00;;;;;;;2.30;59.32;102214.16;5053484;28;20039;-35
2022/03/08 08:14:26;;;;;;;5.33;3.80;;;;;;;2.48;59.26;102219.56;5052385;28;20115;-35
2022/03/08 08:16:51;;;;;;;5.93;4.00;;;;;;;2.49;59.13;102212.41;5053518;28;20271;-35
2022/03/08 08:19:17;;;;;;;9.07;4.40;;;;;;;2.67;58.84;102221.34;5053238;28;20029;-35
2022/03/08 08:21:42;;;;;;;8.47;3.97;;;;;;;2.51;58.98;102192.59;5053395;28;20096;-35
2022/03/08 08:24:08;;;;;;;4.35;3.70;;;;;;;2.68;58.26;102223.03;5053723;28;20259;-35
2022/03/08 08:26:33;;;;;;;5.73;4.17;;;;;;;2.74;58.13;102221.63;5053349;28;20020;-35
2022/03/08 08:28:59;;;;;;;5.70;4.10;;;;;;;2.90;58.14;102229.00;5053013;28;20268;-35
2022/03/08 08:31:26;;;;;;;4.50;3.77;;;;;;;2.83;57.88;102226.06;5053588;28;20025;-35
2022/03/08 08:33:52;;;;;;;5.05;4.03;;;;;;;3.00;57.71;102227.13;5053743;28;20029;-35
2022/03/08 08:36:17;;;;;;;6.93;3.70;;;;;;;3.06;56.99;102223.88;5053937;28;20467;-35
2022/03/08 08:38:43;;;;;;;8.10;4.10;;;;;;;3.23;56.45;102236.47;5053747;28;20025;-35
2022/03/08 08:41:08;;;;;;;5.43;3.80;;;;;;;3.32;56.16;102219.53;5053679;28;20025;-35
2022/03/08 08:43:34;;;;;;;5.38;4.05;;;;;;;3.43;55.82;102222.97;5053343;28;20037;-35
2022/03/08 08:46:00;;;;;;;5.28;3.85;;;;;;;3.52;55.12;102224.75;5053165;28;20037;-35
2022/03/08 08:48:26;;;;;;;5.53;4.03;;;;;;;3.60;54.66;102224.81;5053222;28;20033;-35
2022/03/08 08:50:52;;;;;;;6.60;3.70;;;;;;;3.68;54.47;102214.22;5053501;28;20025;-35
2022/03/08 08:53:18;;;;;;;7.68;3.75;;;;;;;3.74;54.49;102218.94;5052833;28;20025;-35
2022/03/08 08:55:44;;;;;;;5.78;3.30;;;;;;;3.76;54.04;102206.28;5053263;28;20424;-35
2022/03/08 08:58:09;;;;;;;6.70;3.87;;;;;;;3.95;53.49;102215.09;5052152;28;20067;-35
2022/03/08 09:00:35;;;;;;;4.80;3.07;;;;;;;3.98;52.49;102196.91;5053659;28;20109;-35
2022/03/08 09:03:01;;;;;;;3.93;3.20;;;;;;;4.12;53.04;102201.72;5052613;28;20029;-35
2022/03/08 09:05:27;;;;;;;4.88;3.85;;;;;;;4.27;53.53;102204.66;5053352;28;20094;-35
2022/03/08 09:07:52;;;;;;;4.77;3.33;;;;;;;4.36;52.64;102195.69;5052459;28;20442;-35
2022/03/08 09:10:19;;;;;;;8.60;4.00;;;;;;;4.47;51.57;102199.13;5052828;28;20297;-35
2022/03/08 09:12:49;;;;;;;5.57;3.20;;;;;;;4.51;50.86;102200.47;5052799;28;20025;-35
2022/03/08 09:15:15;;;;;;;4.00;3.28;;;;;;;4.66;51.19;102209.63;5052955;28;20040;-35
2022/03/08 09:17:40;;;;;;;4.40;3.20;;;;;;;4.68;50.18;102190.69;5052494;28;20436;-35
2022/03/08 09:20:07;;;;;;;3.87;2.80;;;;;;;4.83;50.63;102206.03;5052849;28;20243;-35
2022/03/08 09:22:32;;;;;;;5.05;3.13;;;;;;;4.82;49.35;102193.59;5052634;28;20086;-35
2022/03/08 09:24:57;;;;;;;4.77;3.30;;;;;;;4.85;49.19;102192.47;5051739;28;20041;-35
2022/03/08 09:27:23;;;;;;;3.70;2.80;;;;;;;4.94;49.36;102196.03;5052388;28;20100;-35
2022/03/08 09:29:48;;;;;;;4.37;3.03;;;;;;;5.02;49.44;102185.31;5052808;28;20028;-35
2022/03/08 09:32:14;;;;;;;4.17;3.33;;;;;;;5.08;48.73;102176.66;5052599;28;20109;-35
2022/03/08 09:34:39;;;;;;;5.68;3.05;;;;;;;5.12;49.47;102178.84;5052589;28;20082;-35
2022/03/08 09:37:06;;;;;;;4.00;3.25;;;;;;;5.20;48.20;102169.97;5053170;28;20080;-35
2022/03/08 09:39:32;;;;;;;4.35;3.17;;;;;;;5.29;49.05;102174.34;5052230;28;20098;-35
2022/03/08 09:41:58;;;;;;;5.07;3.15;;;;;;;5.31;48.29;102150.88;5052549;28;20457;-36
2022/03/08 09:44:24;;;;;;;3.50;3.15;;;;;;;5.48;48.58;102164.34;5052918;28;20350;-36
2022/03/08 09:46:49;;;;;;;3.40;2.70;;;;;;;5.51;48.10;102155.94;5052788;28;20119;-35
2022/03/08 09:49:15;;;;;;;7.37;3.30;;;;;;;5.66;48.46;102154.28;5052797;28;20029;-35
2022/03/08 09:51:40;;;;;;;6.47;3.17;;;;;;;5.82;47.54;102154.31;5052465;28;20033;-35
2022/03/08 09:54:05;;;;;;;4.03;3.30;;;;;;;5.90;47.78;102140.88;5052648;28;20373;-35
2022/03/08 09:56:32;;;;;;;5.10;3.03;;;;;;;5.95;46.97;102143.06;5053245;28;20033;-35
2022/03/08 09:58:59;;;;;;;5.10;2.97;;;;;;;6.08;47.85;102140.72;5052428;28;20052;-35
2022/03/08 10:01:25;;;;;;;5.95;3.40;;;;;;;6.08;47.45;102129.13;5052885;28;20511;-35
2022/03/08 10:03:50;;;;;;;6.35;3.38;;;;;;;6.16;46.35;102147.94;5052347;28;20033;-36
2022/03/08 10:06:16;;;;;;;7.53;3.10;;;;;;;6.17;45.73;102147.75;5052475;28;20056;-36
2022/03/08 10:08:42;;;;;;;5.35;2.72;;;;;;;6.32;45.13;102145.22;5052197;28;20473;-36
2022/03/08 10:11:11;;;;;;;5.33;2.80;;;;;;;6.36;44.93;102130.44;5056531;28;20029;-35
2022/03/08 10:13:42;;;;;;;4.68;3.03;;;;;;;6.43;43.95;102127.88;5055386;28;20032;-36
2022/03/08 10:16:10;;;;;;;6.35;2.90;;;;;;;6.53;45.49;102131.22;5056040;28;20024;-36
2022/03/08 10:18:38;;;;;;;5.22;2.72;;;;;;;6.66;45.04;102133.38;5056175;28;20052;-36
2022/03/08 10:21:04;;;;;;;3.67;2.72;;;;;;;6.63;43.47;102128.31;5071080;28;20075;-36
2022/03/08 10:23:39;;;;;;;5.85;3.00;;;;;;;6.59;44.54;102100.16;5055665;28;20179;-35
2022/03/08 10:26:05;;;;;;;4.43;2.97;;;;;;;6.74;43.37;102122.59;5056068;28;20104;-35
2022/03/08 10:28:30;;;;;;;5.43;2.70;;;;;;;6.80;42.82;102108.44;5055838;28;20061;-35
2022/03/08 10:30:56;;;;;;;8.73;2.43;;;;;;;6.97;42.92;102117.25;5055812;28;20032;-35
2022/03/08 10:33:33;;;;;;;3.33;2.27;;;;;;;7.00;41.29;102108.84;5055646;28;20048;-35
2022/03/08 10:35:58;;;;;;;3.13;2.25;;;;;;;7.05;41.48;102119.06;5055576;28;20123;-35
2022/03/08 10:38:24;;;;;;;4.73;2.70;;;;;;;7.11;40.97;102116.50;5055332;28;20120;-35
2022/03/08 10:40:50;;;;;;;3.80;2.50;;;;;;;7.09;39.65;102106.94;5055683;28;20091;-35
2022/03/08 10:43:17;;;;;;;4.28;2.72;;;;;;;7.15;40.83;102108.91;5055236;28;20025;-36
2022/03/08 10:45:48;;;;;;;3.15;2.22;;;;;;;7.23;41.45;102101.66;5054909;28;20068;-35
2022/03/08 10:48:17;;;;;;;7.43;2.80;;;;;;;7.43;41.64;102111.94;5055012;28;20108;-35
2022/03/08 10:50:43;;;;;;;3.33;2.17;;;;;;;7.47;40.03;102107.88;5055043;28;20090;-35
2022/03/08 10:53:09;;;;;;;;;;;;;;;7.58;40.34;102106.59;5055460;28;20552;-35
2022/03/08 10:55:38;;;;;;;3.83;2.20;;;;;;;7.52;39.86;102099.25;5055163;28;20007;-35
2022/03/08 10:58:14;;;;;;;3.20;2.45;;;;;;;7.62;39.60;102097.16;5054850;28;20021;-35
2022/03/08 11:00:51;;;;;;;4.40;2.35;;;;;;;7.65;39.93;102102.16;5055047;28;20082;-35
2022/03/08 11:03:18;;;;;;;;;;;;;;;7.71;39.80;102098.75;5055375;28;20020;-35
2022/03/08 11:05:46;;;;;;;5.53;2.40;;;;;;;7.73;40.06;102092.16;5055237;28;19909;-35
2022/03/08 11:08:12;;;;;;;3.40;2.40;;;;;;;7.81;40.42;102104.75;5054720;28;20032;-35
2022/03/08 11:10:39;;;;;;;5.20;2.60;;;;;;;7.83;39.53;102083.84;5055027;28;20040;-35
2022/03/08 11:13:06;;;;;;;4.72;2.47;;;;;;;7.89;38.13;102088.47;5054676;28;20381;-35
2022/03/08 11:15:34;;;;;;;4.93;2.50;;;;;;;7.91;39.25;102091.00;5054318;28;20482;-35
2022/03/08 11:18:01;;;;;;;4.18;2.97;;;;;;;7.78;38.72;102080.03;5055358;28;20036;-35
2022/03/08 11:20:28;;;;;;;4.47;2.50;;;;;;;7.94;40.22;102080.69;5054509;28;20029;-35
2022/03/08 11:22:55;;;;;;;3.67;2.65;;;;;;;8.00;38.88;102090.75;5054610;28;20028;-35
2022/03/08 11:25:23;;;;;;;4.45;2.80;;;;;;;7.95;39.44;102085.09;5055038;28;20461;-35
2022/03/08 11:27:49;;;;;;;4.03;2.72;;;;;;;8.12;38.40;102095.69;5054472;28;20040;-35